• Join FlightAware (Why Join?)
  • Login
  • US Flag 
11:16PM EDT


 

Airport Tracker/Info


-or-


 

Live Flight TrackerFlight Track Log ✈ TRS886 ✈ 11-Jul-2013 ✈ KMEM - KATL

Flight Track Log - Related Links

Times and Time Zones

All times are in EDT time to prevent confusion due to time zone crossing. See the TRS886 flight status page for this flight to view local times or setup timezone preferences in your user account.

Time Position Orientation Groundspeed Altitude Reporting Facility
EDT Latitude Longitude Course Direction KTS MPH feet Rate Location/Type
02:51PM 35.0500 -89.9667 103° East 173 199 900  Level KMEM
02:53PM 35.1167 -89.9500 12° North 244 281 2,800 1,920 Climbing KMEM
02:54PM 35.1500 -89.8667 64° Northeast 283 326 5,200 2,460 Climbing KMEM
02:55PM 35.1333 -89.7833 104° East 295 339 7,800 2,340 Climbing KMEM
02:56PM 35.1000 -89.6833 112° Southeast 311 358 9,900 1,860 Climbing KMEM
02:56PM 35.0739 -89.6189 116° Southeast 348 400 10,900 1,380 Climbing Memphis Center
02:57PM 34.9065 -89.3844 103° East  Level Estimated
02:57PM 35.0336 -89.5050 113° Southeast 362 417 12,200  Level Memphis Center
02:58PM 34.9908 -89.3836 113° Southeast 377 434 14,300 1,980 Climbing Memphis Center
02:59PM 34.9461 -89.2575 113° Southeast 390 449 16,200 1,680 Climbing Memphis Center
03:00PM 34.9011 -89.1264 113° Southeast 404 465 17,700 1,440 Climbing Memphis Center
03:01PM 34.8664 -89.0056 109° East 414 476 19,100 1,440 Climbing Memphis Center
03:02PM 34.7881 -88.8931 130° Southeast 422 486 20,600 900 Climbing Memphis Center
03:03PM 34.7053 -88.7833 133° Southeast 438 504 21,000 540 Climbing Memphis Center
03:04PM 34.6244 -88.6711 131° Southeast 444 511 21,700 900 Climbing Memphis Center
03:05PM 34.5994 -88.5303 102° East 418 481 22,900 720 Climbing Memphis Center
03:06PM 34.5867 -88.3767 96° East 429 494 23,200 600 Climbing Memphis Center
03:07PM 34.5697 -88.2283 98° East 440 506 24,200 1,020 Climbing Memphis Center
03:08PM 34.5497 -88.0497 98° East 471 542 25,300 960 Climbing Memphis Center
03:09PM 34.5300 -87.8917 99° East 476 548 26,200 900 Climbing Memphis Center
03:10PM 34.5122 -87.7308 98° East 482 555 27,100 1,020 Climbing Memphis Center
03:11PM 34.4939 -87.5675 98° East 482 555 28,300 1,200 Climbing Memphis Center
03:12PM 34.4736 -87.4069 99° East 482 555 29,500 1,020 Climbing Memphis Center
03:13PM 34.4464 -87.2050 99° East 476 548 30,700 600 Climbing Atlanta Center
03:14PM 34.4256 -87.0431 99° East 476 548 31,000 120 Climbing Atlanta Center
03:15PM 34.4022 -86.8761 100° East 488 562 31,000  Level Atlanta Center
03:16PM 34.3831 -86.7144 98° East 488 562 31,000  Level Atlanta Center
03:17PM 34.3614 -86.5500 99° East 493 567 31,000 -360 Level Atlanta Center
03:18PM 34.3397 -86.3833 99° East 493 567 30,300 -900 Descending Atlanta Center
03:19PM 34.3197 -86.2194 98° East 488 562 29,300 -1,020 Descending Atlanta Center
03:20PM 34.2953 -86.0528 100° East 488 562 28,300 -1,020 Descending Atlanta Center
03:21PM 34.2750 -85.8939 99° East 488 562 27,300 1,320 Descending Atlanta Center
03:22PM 34.2503 -85.7250 100° East 470 541 31,000 -1,920 Climbing Atlanta Center
03:23PM 34.2314 -85.5789 99° East 453 521 23,500 -4,860 Descending Atlanta Center
03:24PM 34.2100 -85.4378 100° East 434 499 21,300 -2,280 Descending Atlanta Center
03:25PM 34.1906 -85.2994 100° East 419 482 19,000 -2,220 Descending Atlanta Center
03:26PM 34.1711 -85.1661 100° East 409 471 16,900 -2,160 Descending Atlanta Center
03:27PM 34.1136 -85.0600 123° Southeast 379 436 14,700 -1,620 Descending Atlanta Center
03:28PM 34.0411 -84.9639 132° Southeast 385 443 13,700 -900 Descending Atlanta Center
03:29PM 33.9750 -84.8806 134° Southeast 385 443 12,900 -900 Descending Atlanta Center
03:30PM 33.9025 -84.7872 133° Southeast 385 443 12,000 -480 Descending Atlanta Center
03:31PM 33.8281 -84.6964 135° Southeast 380 437 12,000 -60 Level Atlanta Center
03:32PM 33.7594 -84.6061 132° Southeast 373 429 11,900 -360 Descending Atlanta Center
03:33PM 33.7286 -84.5233 114° Southeast 283 326 11,300 -1,080 Descending Atlanta Center
03:34PM 33.7289 -84.4383 90° East 257 296 9,800 -1,800 Descending Atlanta Center
03:36PM 33.7333 -84.3333 87° East 237 273 7,500 -2,100 Descending Atlanta TRACON
03:37PM 33.7167 -84.2667 107° East 228 262 5,400 -2,100 Descending Atlanta TRACON
03:38PM 33.6667 -84.2667 180° South 214 246 3,100 -1,500 Descending Atlanta TRACON
03:39PM 33.6500 -84.3333 253° West 190 219 2,500 -900 Descending Atlanta TRACON
03:40PM 33.6500 -84.3833 270° West 143 165 1,500 -1,020 Descending Atlanta TRACON
03:42PM 33.6333 -84.4167 North  Level FlightAware Approximate
03:49PM 33.6367 -84.4279 North  Level Estimated